createdAt,value
2018-03-19T00:00:14.811Z,53.17
2018-03-19T00:02:42.369Z,53.57
2018-03-19T00:05:10.040Z,49.17
2018-03-19T00:07:37.622Z,48.27
2018-03-19T00:10:06.846Z,48.83
2018-03-19T00:12:35.352Z,49.80
2018-03-19T00:15:02.994Z,50.20
2018-03-19T00:17:30.583Z,51.77
2018-03-19T00:19:58.167Z,47.73
2018-03-19T00:22:25.728Z,49.73
2018-03-19T00:24:53.301Z,51.80
2018-03-19T00:27:39.440Z,53.53
2018-03-19T00:32:59.780Z,49.87
2018-03-19T00:35:27.999Z,49.50
2018-03-19T00:37:55.659Z,52.50
2018-03-19T00:40:23.249Z,55.70
2018-03-19T00:42:52.747Z,58.47
2018-03-19T00:45:20.377Z,51.50
2018-03-19T00:47:48.697Z,55.23
2018-03-19T00:50:17.214Z,55.17
2018-03-19T00:52:45.686Z,59.13
2018-03-19T00:55:13.325Z,57.03
2018-03-19T00:57:41.004Z,55.50
2018-03-19T01:00:08.607Z,53.93
2018-03-19T01:02:36.171Z,49.93
2018-03-19T01:05:04.717Z,55.57
2018-03-19T01:07:33.460Z,59.37
2018-03-19T01:10:02.947Z,53.63
2018-03-19T01:12:30.551Z,60.97
2018-03-19T01:14:58.943Z,54.27
2018-03-19T01:17:26.566Z,57.07
2018-03-19T01:19:54.139Z,54.60
2018-03-19T01:22:22.649Z,56.43
2018-03-19T01:24:51.037Z,54.83
2018-03-19T01:27:20.555Z,57.20
2018-03-19T01:29:49.094Z,52.03
2018-03-19T01:35:27.351Z,58.60
2018-03-19T01:37:55.008Z,58.10
2018-03-19T01:40:23.369Z,59.73
2018-03-19T01:42:51.927Z,61.97
2018-03-19T01:45:19.504Z,53.60
2018-03-19T01:47:48.085Z,55.33
2018-03-19T01:50:15.631Z,55.10
2018-03-19T01:52:50.748Z,59.27
2018-03-19T01:55:18.320Z,55.20
2018-03-19T01:57:45.901Z,51.57
2018-03-19T02:00:13.488Z,53.90
2018-03-19T02:02:41.025Z,55.23
2018-03-19T02:05:08.569Z,56.90
2018-03-19T02:07:36.999Z,58.20
2018-03-19T02:10:06.534Z,50.53
2018-03-19T02:12:34.149Z,48.10
2018-03-19T02:15:01.750Z,59.47
2018-03-19T02:17:29.367Z,53.73
2018-03-19T02:19:56.956Z,56.97
2018-03-19T02:22:24.568Z,56.43
2018-03-19T02:24:52.190Z,61.87
2018-03-19T02:27:20.675Z,53.83
2018-03-19T02:29:48.299Z,58.60
2018-03-19T02:32:16.665Z,58.13
2018-03-19T02:34:44.170Z,55.03
2018-03-19T02:37:11.747Z,55.27
2018-03-19T02:39:39.329Z,54.07
2018-03-19T02:42:06.871Z,54.40
2018-03-19T02:44:35.099Z,55.43
2018-03-19T02:47:02.617Z,55.57
2018-03-19T02:49:30.131Z,54.90
2018-03-19T02:51:57.754Z,55.47
2018-03-19T02:54:25.263Z,55.00
2018-03-19T02:56:52.902Z,57.13
2018-03-19T02:59:20.573Z,57.37
2018-03-19T03:01:48.134Z,53.83
2018-03-19T03:04:15.687Z,56.23
2018-03-19T03:06:43.336Z,50.23
2018-03-19T03:09:10.923Z,49.97
2018-03-19T03:11:38.456Z,66.13
2018-03-19T03:14:06.034Z,58.33
2018-03-19T03:16:34.517Z,56.83
2018-03-19T03:19:02.053Z,60.07
2018-03-19T03:21:32.986Z,63.50
2018-03-19T03:24:00.510Z,59.40
2018-03-19T03:26:28.162Z,56.70
2018-03-19T03:28:55.730Z,60.80
2018-03-19T03:31:23.277Z,53.83
2018-03-19T03:34:09.569Z,58.33
2018-03-19T03:39:27.538Z,51.03
2018-03-19T03:41:55.137Z,55.47
2018-03-19T03:44:22.806Z,64.20
2018-03-19T03:46:50.462Z,54.47
2018-03-19T03:49:18.934Z,58.20
2018-03-19T03:51:48.468Z,64.40
2018-03-19T03:54:16.114Z,61.60
2018-03-19T03:56:43.706Z,52.33
2018-03-19T03:59:12.987Z,58.50
2018-03-19T04:01:40.636Z,60.27
2018-03-19T04:04:08.204Z,59.77
2018-03-19T04:06:35.765Z,57.83
2018-03-19T04:09:03.422Z,53.93
2018-03-19T04:11:31.025Z,61.53
2018-03-19T04:14:00.392Z,61.07
2018-03-19T04:16:28.039Z,60.67
2018-03-19T04:18:56.621Z,57.30
2018-03-19T04:21:24.231Z,60.07
2018-03-19T04:23:52.906Z,61.30
2018-03-19T04:26:20.430Z,62.53
2018-03-19T04:28:48.017Z,61.40
2018-03-19T04:31:16.563Z,58.43
2018-03-19T04:33:44.193Z,68.93
2018-03-19T04:36:11.825Z,63.60
2018-03-19T04:38:40.311Z,55.70
2018-03-19T04:41:07.992Z,64.43
2018-03-19T04:43:35.602Z,69.27
2018-03-19T04:46:03.142Z,68.00
2018-03-19T04:48:30.735Z,57.73
2018-03-19T04:50:58.308Z,67.07
2018-03-19T04:53:26.870Z,66.00
2018-03-19T04:55:54.535Z,60.67
2018-03-19T04:58:22.057Z,57.87
2018-03-19T05:00:49.672Z,63.50
2018-03-19T05:03:18.200Z,61.87
2018-03-19T05:05:45.742Z,69.73
2018-03-19T05:08:13.794Z,68.23
2018-03-19T05:10:41.373Z,60.37
2018-03-19T05:13:09.900Z,63.87
2018-03-19T05:15:37.497Z,76.10
2018-03-19T05:18:05.065Z,65.87
2018-03-19T05:20:32.659Z,59.60
2018-03-19T05:23:02.171Z,66.23
2018-03-19T05:25:30.730Z,64.93
2018-03-19T05:27:58.248Z,54.60
2018-03-19T05:30:28.526Z,58.60
2018-03-19T05:32:56.140Z,51.17
2018-03-19T05:35:24.577Z,60.57
2018-03-19T05:37:52.163Z,52.70
2018-03-19T05:40:19.671Z,57.67
2018-03-19T05:42:47.377Z,56.87
2018-03-19T05:45:14.920Z,56.57
2018-03-19T05:47:43.499Z,51.53
2018-03-19T05:50:11.164Z,56.10
2018-03-19T05:52:38.704Z,53.87
2018-03-19T05:55:06.263Z,58.90
2018-03-19T05:57:34.818Z,54.37
2018-03-19T06:00:03.399Z,57.57
2018-03-19T06:02:31.030Z,57.27
2018-03-19T06:04:59.326Z,59.23
2018-03-19T06:07:27.876Z,58.20
2018-03-19T06:09:55.380Z,49.67
2018-03-19T06:12:22.990Z,50.70
2018-03-19T06:14:50.578Z,55.80
2018-03-19T06:17:18.180Z,52.20
2018-03-19T06:19:47.883Z,56.10
2018-03-19T06:22:15.587Z,54.40
2018-03-19T06:24:43.094Z,51.97
2018-03-19T06:27:12.144Z,52.87
2018-03-19T06:29:39.980Z,52.50
2018-03-19T06:32:07.512Z,51.80
2018-03-19T06:34:35.067Z,61.27
2018-03-19T06:37:02.617Z,52.90
2018-03-19T06:39:31.195Z,55.23
2018-03-19T06:41:58.839Z,61.63
2018-03-19T06:44:28.264Z,59.67
2018-03-19T06:46:55.898Z,57.43
2018-03-19T06:49:23.506Z,54.27
2018-03-19T06:51:51.054Z,56.23
2018-03-19T06:54:18.728Z,59.73
2018-03-19T06:56:46.291Z,59.77
2018-03-19T06:59:13.883Z,51.57
2018-03-19T07:01:41.502Z,59.73
2018-03-19T07:04:09.083Z,54.97
2018-03-19T07:06:37.645Z,54.73
2018-03-19T07:09:05.942Z,58.00
2018-03-19T07:11:49.504Z,53.90
2018-03-19T07:14:17.037Z,57.23
2018-03-19T07:16:44.572Z,52.97
2018-03-19T07:19:12.145Z,52.63
2018-03-19T07:21:40.479Z,51.43
2018-03-19T07:24:09.579Z,54.73
2018-03-19T07:26:37.106Z,47.43
2018-03-19T07:29:04.610Z,48.73
2018-03-19T07:31:34.191Z,47.03
2018-03-19T07:34:01.744Z,58.37
2018-03-19T07:36:29.286Z,52.07
2018-03-19T07:38:56.835Z,54.17
2018-03-19T07:41:28.113Z,52.20
2018-03-19T07:43:55.729Z,51.60
2018-03-19T07:46:23.346Z,50.23
2018-03-19T07:48:51.843Z,52.13
2018-03-19T07:51:19.384Z,52.27
2018-03-19T07:53:47.392Z,49.97
2018-03-19T07:56:16.670Z,54.53
2018-03-19T07:58:44.271Z,51.63
2018-03-19T08:01:13.139Z,47.07
2018-03-19T08:03:41.699Z,54.70
2018-03-19T08:06:10.775Z,54.97
2018-03-19T08:08:38.434Z,59.17
2018-03-19T08:11:08.801Z,55.37
2018-03-19T08:13:37.104Z,54.47
2018-03-19T08:16:04.703Z,51.13
2018-03-19T08:18:32.368Z,53.70
2018-03-19T08:21:01.166Z,55.87
2018-03-19T08:23:29.532Z,58.20
2018-03-19T08:25:57.200Z,57.83
2018-03-19T08:28:25.718Z,52.70
2018-03-19T08:30:55.016Z,52.87
2018-03-19T08:33:23.500Z,52.10
2018-03-19T08:35:52.274Z,50.93
2018-03-19T08:38:19.871Z,52.23
2018-03-19T08:40:48.586Z,56.30
2018-03-19T08:43:17.261Z,50.07
2018-03-19T08:45:45.141Z,54.23
2018-03-19T08:48:12.819Z,50.73
2018-03-19T08:50:40.961Z,61.53
2018-03-19T08:53:10.364Z,51.07
2018-03-19T08:55:40.512Z,49.53
2018-03-19T08:58:08.916Z,53.47
2018-03-19T09:00:36.812Z,54.73
2018-03-19T09:03:04.473Z,54.87
2018-03-19T09:05:33.049Z,57.73
2018-03-19T09:08:03.579Z,50.67
2018-03-19T09:10:31.209Z,51.57
2018-03-19T09:12:58.853Z,59.13
2018-03-19T09:15:26.580Z,56.50
2018-03-19T09:17:54.830Z,54.77
2018-03-19T09:20:22.522Z,54.80
2018-03-19T09:23:08.804Z,51.60
2018-03-19T09:28:47.654Z,60.23
2018-03-19T09:31:15.546Z,52.93
2018-03-19T09:33:43.125Z,54.57
2018-03-19T09:36:12.543Z,56.63
2018-03-19T09:38:41.842Z,51.67
2018-03-19T09:41:10.370Z,52.77
2018-03-19T09:43:38.021Z,52.07
2018-03-19T09:46:06.608Z,57.90
2018-03-19T09:48:35.137Z,57.13
2018-03-19T09:51:04.935Z,63.53
2018-03-19T09:53:32.981Z,54.93
2018-03-19T09:56:00.593Z,60.77
2018-03-19T09:58:32.142Z,56.50
2018-03-19T10:00:59.682Z,56.80
2018-03-19T10:03:45.230Z,61.13
2018-03-19T10:06:15.875Z,57.27
2018-03-19T10:08:44.571Z,54.83
2018-03-19T10:14:04.430Z,56.53
2018-03-19T10:16:32.022Z,51.37
2018-03-19T10:18:59.627Z,51.93
2018-03-19T10:21:28.304Z,58.07
2018-03-19T10:24:21.598Z,56.87
2018-03-19T10:29:42.447Z,52.97
2018-03-19T10:32:10.882Z,52.13
2018-03-19T10:34:43.412Z,54.33
2018-03-19T10:37:31.809Z,54.97
2018-03-19T10:40:01.367Z,52.30
2018-03-19T10:42:31.642Z,54.20
2018-03-19T10:44:59.210Z,49.97
2018-03-19T10:50:33.375Z,51.37
2018-03-19T10:53:01.041Z,53.17
2018-03-19T10:55:28.567Z,51.03
2018-03-19T10:57:56.096Z,50.57
2018-03-19T11:00:24.721Z,56.47
2018-03-19T11:02:55.308Z,51.67
2018-03-19T11:05:29.488Z,54.30
2018-03-19T11:08:02.560Z,55.43
2018-03-19T11:10:32.090Z,50.20
2018-03-19T11:13:00.460Z,52.93
2018-03-19T11:15:28.135Z,49.83
2018-03-19T11:17:56.651Z,52.13
2018-03-19T11:20:25.121Z,49.00
2018-03-19T11:22:57.437Z,48.90
2018-03-19T11:25:25.040Z,43.93
2018-03-19T11:27:52.624Z,47.17
2018-03-19T11:30:21.854Z,47.43
2018-03-19T11:32:49.428Z,46.27
2018-03-19T11:35:18.014Z,46.50
2018-03-19T11:37:45.607Z,47.23
2018-03-19T11:40:13.151Z,48.57
2018-03-19T11:42:41.724Z,45.53
2018-03-19T11:45:09.384Z,45.73
2018-03-19T11:47:36.972Z,46.60
2018-03-19T11:50:04.594Z,46.67
2018-03-19T11:55:04.135Z,48.00
2018-03-19T11:57:50.449Z,49.30
2018-03-19T12:00:18.151Z,50.30
2018-03-19T12:05:49.881Z,47.80
2018-03-19T12:08:18.018Z,50.77
2018-03-19T12:10:46.387Z,50.27
2018-03-19T12:13:14.488Z,48.53
2018-03-19T12:15:42.053Z,47.57
2018-03-19T12:18:10.344Z,60.50
2018-03-19T12:20:38.797Z,47.53
2018-03-19T12:23:07.315Z,46.93
2018-03-19T12:25:34.837Z,46.93
2018-03-19T12:28:03.302Z,47.63
2018-03-19T12:30:30.860Z,43.37
2018-03-19T12:32:59.650Z,46.83
2018-03-19T12:35:27.268Z,54.10
2018-03-19T12:37:55.916Z,43.00
2018-03-19T12:40:24.273Z,41.47
2018-03-19T12:42:51.799Z,44.70
2018-03-19T12:45:19.337Z,44.60
2018-03-19T12:47:46.905Z,47.23
2018-03-19T12:50:14.518Z,44.90
2018-03-19T12:52:42.038Z,47.57
2018-03-19T12:55:10.626Z,45.90
2018-03-19T12:57:38.174Z,42.43
2018-03-19T13:00:05.689Z,48.70
2018-03-19T13:02:33.983Z,45.67
2018-03-19T13:05:01.513Z,49.67
2018-03-19T13:07:29.180Z,46.80
2018-03-19T13:09:56.741Z,49.73
2018-03-19T13:12:24.266Z,50.47
2018-03-19T13:14:51.940Z,48.60
2018-03-19T13:17:19.457Z,47.60
2018-03-19T13:19:47.791Z,48.10
2018-03-19T13:22:15.460Z,51.43
2018-03-19T13:24:42.971Z,43.90
2018-03-19T13:27:11.298Z,49.67
2018-03-19T13:29:39.544Z,48.70
2018-03-19T13:32:07.058Z,54.03
2018-03-19T13:34:34.610Z,50.17
2018-03-19T13:37:02.288Z,51.53
2018-03-19T13:39:30.742Z,50.13
2018-03-19T13:41:58.304Z,49.53
2018-03-19T13:44:25.908Z,49.97
2018-03-19T13:46:54.463Z,51.10
2018-03-19T13:49:22.049Z,52.33
2018-03-19T13:51:49.732Z,54.87
2018-03-19T13:54:19.022Z,54.40
2018-03-19T13:56:46.586Z,50.13
2018-03-19T13:59:14.182Z,47.70
2018-03-19T14:01:41.811Z,54.07
2018-03-19T14:04:09.398Z,51.80
2018-03-19T14:06:37.949Z,57.33
2018-03-19T14:09:06.591Z,55.47
2018-03-19T14:11:35.122Z,50.67
2018-03-19T14:14:03.621Z,48.13
2018-03-19T14:16:33.218Z,52.43
2018-03-19T14:19:00.791Z,57.00
2018-03-19T14:21:28.352Z,51.67
2018-03-19T14:23:56.034Z,48.60
2018-03-19T14:26:25.485Z,49.73
2018-03-19T14:28:54.075Z,50.00
2018-03-19T14:31:22.407Z,48.07
2018-03-19T14:36:28.133Z,49.90
2018-03-19T14:38:55.673Z,48.70
2018-03-19T14:41:23.210Z,49.17
2018-03-19T14:43:50.809Z,50.60
2018-03-19T14:46:18.440Z,50.97
2018-03-19T14:48:46.081Z,47.93
2018-03-19T14:51:13.655Z,44.40
2018-03-19T14:53:41.968Z,52.50
2018-03-19T14:56:09.862Z,52.73
2018-03-19T14:58:38.394Z,46.83
2018-03-19T15:01:06.000Z,45.47
2018-03-19T15:03:35.413Z,49.03
2018-03-19T15:06:04.110Z,52.33
2018-03-19T15:08:34.449Z,52.57
2018-03-19T15:11:03.109Z,50.13
2018-03-19T15:13:33.707Z,50.73
2018-03-19T15:16:01.317Z,49.00
2018-03-19T15:18:30.072Z,50.37
2018-03-19T15:20:57.633Z,54.57
2018-03-19T15:23:26.901Z,49.20
2018-03-19T15:25:55.245Z,43.60
2018-03-19T15:28:22.860Z,51.63
2018-03-19T15:30:51.249Z,53.87
2018-03-19T15:33:18.791Z,55.47
2018-03-19T15:35:48.098Z,51.97
2018-03-19T15:38:15.653Z,48.60
2018-03-19T15:40:43.382Z,50.60
2018-03-19T15:43:11.782Z,51.70
2018-03-19T15:45:39.398Z,56.10
2018-03-19T15:48:07.062Z,60.87
2018-03-19T15:50:36.643Z,61.13
2018-03-19T15:53:04.297Z,59.23
2018-03-19T15:55:32.077Z,58.40
2018-03-19T15:57:59.718Z,56.97
2018-03-19T16:00:27.462Z,63.17
2018-03-19T16:02:55.072Z,62.07
2018-03-19T16:05:23.566Z,58.93
2018-03-19T16:07:52.842Z,65.90
2018-03-19T16:10:20.458Z,69.87
2018-03-19T16:12:48.293Z,52.53
2018-03-19T16:15:17.865Z,61.13
2018-03-19T16:17:45.597Z,51.63
2018-03-19T16:20:13.337Z,53.00
2018-03-19T16:22:41.035Z,52.77
2018-03-19T16:25:10.107Z,51.60
2018-03-19T16:27:39.263Z,51.47
2018-03-19T16:30:07.705Z,43.27
2018-03-19T16:32:35.277Z,46.27
2018-03-19T16:35:02.890Z,44.67
2018-03-19T16:37:30.445Z,47.33
2018-03-19T16:39:58.047Z,43.17
2018-03-19T16:42:25.682Z,45.03
2018-03-19T16:44:55.146Z,46.10
2018-03-19T16:47:23.702Z,44.70
2018-03-19T16:49:53.213Z,44.10
2018-03-19T16:52:20.757Z,45.37
2018-03-19T16:54:49.178Z,44.87
2018-03-19T16:57:16.761Z,44.90
2018-03-19T16:59:44.449Z,48.67
2018-03-19T17:02:11.951Z,51.10
2018-03-19T17:04:39.561Z,44.27
2018-03-19T17:07:07.172Z,43.73
2018-03-19T17:09:35.663Z,46.67
2018-03-19T17:12:03.259Z,43.63
2018-03-19T17:14:30.907Z,45.23
2018-03-19T17:17:00.180Z,43.07
2018-03-19T17:19:27.755Z,41.70
2018-03-19T17:21:57.022Z,48.87
2018-03-19T17:24:24.613Z,43.67
2018-03-19T17:26:52.292Z,42.43
2018-03-19T17:29:19.865Z,41.80
2018-03-19T17:31:47.411Z,45.70
2018-03-19T17:34:14.997Z,49.27
2018-03-19T17:36:42.541Z,53.60
2018-03-19T17:39:10.147Z,53.87
2018-03-19T17:41:37.753Z,55.80
2018-03-19T17:44:06.075Z,64.83
2018-03-19T17:46:35.572Z,59.77
2018-03-19T17:49:03.156Z,59.23
2018-03-19T17:51:30.863Z,57.37
2018-03-19T17:53:59.147Z,58.07
2018-03-19T17:56:26.716Z,57.20
2018-03-19T17:58:55.059Z,56.83
2018-03-19T18:01:23.634Z,62.43
2018-03-19T18:03:51.181Z,59.93
2018-03-19T18:06:18.685Z,61.10
2018-03-19T18:08:46.268Z,61.80
2018-03-19T18:11:13.858Z,65.27
2018-03-19T18:13:41.419Z,61.73
2018-03-19T18:16:08.961Z,65.30
2018-03-19T18:18:36.581Z,70.57
2018-03-19T18:21:04.139Z,68.53
2018-03-19T18:23:31.754Z,65.43
2018-03-19T18:25:59.369Z,65.83
2018-03-19T18:28:26.968Z,68.47
2018-03-19T18:30:54.537Z,66.73
2018-03-19T18:33:23.018Z,58.67
2018-03-19T18:35:50.566Z,57.90
2018-03-19T18:38:18.135Z,56.20
2018-03-19T18:40:45.688Z,56.73
2018-03-19T18:43:13.242Z,57.77
2018-03-19T18:45:40.850Z,53.33
2018-03-19T18:48:08.383Z,58.60
2018-03-19T18:50:36.925Z,62.37
2018-03-19T18:53:04.563Z,67.40
2018-03-19T18:55:33.014Z,55.60
2018-03-19T18:58:00.661Z,57.87
2018-03-19T19:00:29.124Z,61.90
2018-03-19T19:02:57.307Z,58.10
2018-03-19T19:05:25.622Z,55.83
2018-03-19T19:07:53.191Z,50.93
2018-03-19T19:10:20.744Z,57.80
2018-03-19T19:12:48.372Z,51.10
2018-03-19T19:15:18.814Z,48.87
2018-03-19T19:17:49.264Z,49.67
2018-03-19T19:20:16.910Z,46.57
2018-03-19T19:22:47.183Z,44.37
2018-03-19T19:25:14.735Z,45.87
2018-03-19T19:27:42.311Z,46.33
2018-03-19T19:33:41.754Z,45.10
2018-03-19T19:36:09.543Z,45.37
2018-03-19T19:38:37.805Z,47.97
2018-03-19T19:44:09.669Z,44.07
2018-03-19T19:46:37.279Z,42.43
2018-03-19T19:49:05.001Z,43.10
2018-03-19T19:51:32.592Z,43.37
2018-03-19T19:54:03.370Z,43.17
2018-03-19T19:56:30.994Z,46.23
2018-03-19T19:58:58.689Z,44.93
2018-03-19T20:01:28.361Z,47.47
2018-03-19T20:03:55.975Z,47.00
2018-03-19T20:06:23.595Z,46.43
2018-03-19T20:08:51.220Z,44.67
2018-03-19T20:11:18.799Z,44.90
2018-03-19T20:13:46.339Z,40.50
2018-03-19T20:16:14.003Z,44.87
2018-03-19T20:18:41.566Z,41.00
2018-03-19T20:21:11.167Z,41.70
2018-03-19T20:23:39.697Z,48.70
2018-03-19T20:26:07.317Z,40.87
2018-03-19T20:28:35.923Z,39.43
2018-03-19T20:31:04.546Z,39.73
2018-03-19T20:33:32.200Z,43.37
2018-03-19T20:36:00.697Z,37.43
2018-03-19T20:38:28.315Z,42.07
2018-03-19T20:40:55.926Z,41.13
2018-03-19T20:43:24.383Z,41.47
2018-03-19T20:45:52.587Z,38.77
2018-03-19T20:48:20.209Z,41.13
2018-03-19T20:50:48.607Z,41.10
2018-03-19T20:53:19.439Z,43.20
2018-03-19T20:55:46.969Z,37.83
2018-03-19T20:58:15.245Z,40.33
2018-03-19T21:00:43.521Z,39.37
2018-03-19T21:03:11.820Z,43.40
2018-03-19T21:05:41.637Z,42.03
2018-03-19T21:08:09.203Z,41.13
2018-03-19T21:10:36.757Z,44.23
2018-03-19T21:13:06.051Z,40.70
2018-03-19T21:15:33.606Z,42.47
2018-03-19T21:18:02.160Z,38.57
2018-03-19T21:20:29.707Z,40.87
2018-03-19T21:22:59.672Z,40.63
2018-03-19T21:25:27.219Z,43.67
2018-03-19T21:27:54.810Z,42.53
2018-03-19T21:30:22.453Z,40.93
2018-03-19T21:32:50.017Z,42.10
2018-03-19T21:35:17.589Z,39.77
2018-03-19T21:37:45.184Z,44.23
2018-03-19T21:40:13.742Z,45.77
2018-03-19T21:42:42.240Z,44.07
2018-03-19T21:45:09.844Z,42.13
2018-03-19T21:47:37.388Z,47.70
2018-03-19T21:50:06.787Z,42.03
2018-03-19T21:52:35.071Z,38.47
2018-03-19T21:55:03.367Z,41.23
2018-03-19T21:57:31.823Z,43.53
2018-03-19T21:59:59.492Z,42.90
2018-03-19T22:02:27.772Z,44.10
2018-03-19T22:04:56.902Z,45.87
2018-03-19T22:07:24.578Z,44.20
2018-03-19T22:09:52.123Z,49.20
2018-03-19T22:12:20.397Z,44.93
2018-03-19T22:14:48.102Z,44.57
2018-03-19T22:17:15.700Z,43.20
2018-03-19T22:19:43.304Z,45.33
2018-03-19T22:22:12.627Z,43.37
2018-03-19T22:24:40.182Z,46.07
2018-03-19T22:27:08.634Z,48.33
2018-03-19T22:29:36.335Z,47.23
2018-03-19T22:32:03.913Z,49.13
2018-03-19T22:34:32.391Z,49.80
2018-03-19T22:36:59.925Z,44.27
2018-03-19T22:39:29.870Z,45.07
2018-03-19T22:41:57.416Z,47.17
2018-03-19T22:44:25.848Z,43.57
2018-03-19T22:46:53.359Z,47.97
2018-03-19T22:49:22.713Z,45.67
2018-03-19T22:51:50.261Z,44.23
2018-03-19T22:54:19.830Z,48.97
2018-03-19T22:56:47.349Z,47.33
2018-03-19T22:59:16.820Z,50.47
2018-03-19T23:01:46.716Z,51.30
2018-03-19T23:04:20.164Z,50.10
2018-03-19T23:06:47.704Z,55.00
2018-03-19T23:09:16.094Z,50.33
2018-03-19T23:11:43.647Z,47.13
2018-03-19T23:14:12.869Z,50.00
2018-03-19T23:16:40.423Z,50.63
2018-03-19T23:19:08.904Z,52.00
2018-03-19T23:21:37.212Z,51.20
2018-03-19T23:24:04.758Z,51.37
2018-03-19T23:26:32.338Z,46.83
2018-03-19T23:28:59.862Z,50.70
2018-03-19T23:31:28.213Z,50.53
2018-03-19T23:33:55.833Z,49.27
2018-03-19T23:36:23.385Z,48.40
2018-03-19T23:38:50.981Z,51.67
2018-03-19T23:41:19.467Z,46.63
2018-03-19T23:43:46.964Z,48.43
2018-03-19T23:46:14.494Z,50.73
2018-03-19T23:48:42.971Z,53.00
2018-03-19T23:51:10.609Z,51.97
2018-03-19T23:53:38.943Z,51.07
2018-03-19T23:56:08.431Z,47.37
2018-03-19T23:58:36.697Z,51.60
